createdAt,value
2022-09-30T00:01:22.708Z,6.90
2022-09-30T00:03:49.471Z,7.35
2022-09-30T00:06:16.070Z,7.70
2022-09-30T00:08:42.562Z,6.32
2022-09-30T00:11:19.029Z,5.80
2022-09-30T00:13:48.055Z,5.28
2022-09-30T00:16:16.218Z,5.32
2022-09-30T00:18:43.860Z,5.00
2022-09-30T00:21:12.269Z,4.60
2022-09-30T00:23:39.659Z,4.97
2022-09-30T00:26:09.400Z,5.20
2022-09-30T00:28:35.892Z,4.95
2022-09-30T00:31:17.256Z,5.00
2022-09-30T00:33:44.394Z,4.57
2022-09-30T00:36:11.237Z,4.63
2022-09-30T00:38:37.685Z,4.55
2022-09-30T00:41:04.548Z,5.07
2022-09-30T00:43:51.401Z,4.88
2022-09-30T00:46:44.549Z,5.00
2022-09-30T00:49:29.785Z,5.50
2022-09-30T00:51:57.521Z,5.05
2022-09-30T00:54:29.671Z,5.00
2022-09-30T00:57:00.701Z,5.40
2022-09-30T00:59:33.174Z,5.13
2022-09-30T01:02:01.153Z,4.95
2022-09-30T01:04:31.440Z,4.65
2022-09-30T01:07:04.440Z,5.68
2022-09-30T01:09:37.024Z,5.25
2022-09-30T01:12:07.270Z,5.07
2022-09-30T01:14:35.432Z,4.85
2022-09-30T01:17:16.715Z,5.13
2022-09-30T01:20:04.462Z,5.28
2022-09-30T01:22:42.339Z,5.60
2022-09-30T01:25:30.505Z,4.93
2022-09-30T01:28:10.961Z,5.85
2022-09-30T01:30:56.017Z,5.00
2022-09-30T01:34:04.108Z,5.25
2022-09-30T01:36:50.041Z,5.13
2022-09-30T01:39:25.630Z,5.38
2022-09-30T01:42:35.432Z,5.32
2022-09-30T01:45:14.208Z,5.47
2022-09-30T01:48:02.836Z,5.20
2022-09-30T01:50:41.348Z,5.40
2022-09-30T01:53:15.625Z,5.72
2022-09-30T01:56:01.575Z,4.72
2022-09-30T01:58:53.569Z,5.22
2022-09-30T02:01:26.113Z,5.20
2022-09-30T02:03:59.397Z,4.88
2022-09-30T02:06:32.154Z,5.05
2022-09-30T02:09:04.877Z,4.80
2022-09-30T02:11:36.392Z,5.75
2022-09-30T02:14:11.961Z,5.43
2022-09-30T02:16:42.405Z,5.32
2022-09-30T02:19:40.675Z,5.30
2022-09-30T02:22:16.357Z,3.77
2022-09-30T02:24:45.899Z,5.50
2022-09-30T02:27:25.162Z,5.18
2022-09-30T02:29:57.754Z,5.50
2022-09-30T02:32:35.604Z,5.50
2022-09-30T02:35:10.500Z,5.20
2022-09-30T02:37:41.803Z,5.82
2022-09-30T02:40:22.634Z,5.30
2022-09-30T02:42:49.179Z,5.25
2022-09-30T02:45:19.663Z,5.00
2022-09-30T02:48:08.044Z,5.10
2022-09-30T02:50:57.220Z,5.13
2022-09-30T02:53:43.228Z,5.55
2022-09-30T02:56:29.709Z,5.32
2022-09-30T02:58:57.689Z,5.47
2022-09-30T03:01:24.437Z,4.97
2022-09-30T03:03:54.814Z,5.15
2022-09-30T03:06:21.752Z,5.18
2022-09-30T03:08:48.502Z,5.07
2022-09-30T03:11:17.970Z,5.03
2022-09-30T03:16:50.661Z,5.70
2022-09-30T03:19:50.756Z,5.07
2022-09-30T03:22:47.854Z,5.22
2022-09-30T03:25:36.165Z,4.55
2022-09-30T03:28:26.912Z,5.30
2022-09-30T03:31:09.319Z,4.75
2022-09-30T03:34:00.720Z,5.15
2022-09-30T03:36:30.045Z,4.82
2022-09-30T03:39:25.720Z,4.82
2022-09-30T03:42:13.364Z,5.40
2022-09-30T03:45:02.957Z,4.88
2022-09-30T03:47:33.628Z,5.18
2022-09-30T03:50:04.427Z,5.57
2022-09-30T03:52:33.426Z,5.30
2022-09-30T03:55:02.746Z,5.90
2022-09-30T03:57:30.876Z,5.60
2022-09-30T03:59:58.141Z,5.18
2022-09-30T04:02:25.409Z,4.80
2022-09-30T04:04:52.024Z,5.28
2022-09-30T04:07:18.530Z,5.63
2022-09-30T04:09:45.099Z,5.32
2022-09-30T04:12:11.604Z,5.47
2022-09-30T04:14:38.090Z,5.50
2022-09-30T04:17:05.417Z,5.28
2022-09-30T04:19:32.232Z,5.53
2022-09-30T04:21:58.892Z,5.88
2022-09-30T04:24:25.434Z,5.60
2022-09-30T04:26:52.191Z,5.70
2022-09-30T04:29:18.740Z,5.00
2022-09-30T04:31:45.329Z,5.53
2022-09-30T04:34:11.862Z,5.65
2022-09-30T04:36:38.464Z,5.80
2022-09-30T04:39:05.289Z,6.85
2022-09-30T04:41:34.043Z,6.57
2022-09-30T04:44:05.825Z,6.47
2022-09-30T04:46:34.373Z,6.75
2022-09-30T04:49:00.912Z,6.18
2022-09-30T04:51:27.382Z,5.95
2022-09-30T04:53:53.929Z,7.07
2022-09-30T04:56:20.448Z,14.38
2022-09-30T04:58:47.204Z,10.25
2022-09-30T05:01:18.233Z,7.38
2022-09-30T05:03:45.591Z,6.20
2022-09-30T05:06:12.809Z,6.65
2022-09-30T05:08:44.735Z,6.30
2022-09-30T05:11:17.323Z,5.80
2022-09-30T05:13:44.275Z,6.70
2022-09-30T05:16:11.226Z,6.30
2022-09-30T05:18:40.802Z,6.18
2022-09-30T05:21:07.462Z,6.53
2022-09-30T05:23:34.468Z,5.93
2022-09-30T05:26:02.303Z,6.13
2022-09-30T05:28:31.120Z,5.93
2022-09-30T05:30:59.969Z,6.85
2022-09-30T05:33:29.395Z,7.50
2022-09-30T05:35:59.424Z,7.00
2022-09-30T05:38:25.937Z,6.85
2022-09-30T05:40:52.636Z,6.50
2022-09-30T05:43:19.248Z,7.90
2022-09-30T05:45:56.277Z,7.82
2022-09-30T05:48:24.302Z,7.60
2022-09-30T05:50:55.323Z,7.68
2022-09-30T05:53:21.952Z,8.27
2022-09-30T05:55:48.894Z,7.22
2022-09-30T05:58:16.363Z,7.50
2022-09-30T06:00:44.674Z,7.65
2022-09-30T06:03:11.476Z,7.57
2022-09-30T06:05:37.927Z,7.93
2022-09-30T06:08:07.071Z,7.32
2022-09-30T06:10:34.500Z,7.68
2022-09-30T06:13:03.561Z,6.93
2022-09-30T06:15:34.052Z,8.50
2022-09-30T06:18:05.232Z,10.80
2022-09-30T06:20:32.243Z,11.17
2022-09-30T06:23:01.938Z,7.78
2022-09-30T06:25:29.538Z,9.48
2022-09-30T06:27:56.883Z,7.80
2022-09-30T06:30:24.030Z,7.65
2022-09-30T06:32:51.455Z,8.05
2022-09-30T06:35:19.361Z,8.23
2022-09-30T06:37:46.030Z,8.10
2022-09-30T06:40:12.540Z,8.07
2022-09-30T06:42:39.040Z,9.15
2022-09-30T06:45:06.391Z,10.85
2022-09-30T06:47:33.285Z,10.10
2022-09-30T06:49:59.918Z,10.30
2022-09-30T06:52:27.164Z,11.00
2022-09-30T06:54:56.520Z,10.63
2022-09-30T06:57:24.903Z,10.30
2022-09-30T07:00:05.592Z,11.73
2022-09-30T07:02:34.329Z,10.65
2022-09-30T07:05:04.051Z,10.77
2022-09-30T07:10:01.042Z,10.65
2022-09-30T07:12:27.493Z,10.18
2022-09-30T07:14:54.027Z,10.90
2022-09-30T07:17:20.519Z,11.23
2022-09-30T07:19:47.064Z,10.80
2022-09-30T07:22:31.850Z,11.57
2022-09-30T07:25:03.945Z,10.93
2022-09-30T07:27:33.440Z,12.18
2022-09-30T07:32:46.949Z,13.50
2022-09-30T07:35:13.474Z,13.32
2022-09-30T07:37:40.590Z,14.15
2022-09-30T07:40:09.299Z,13.98
2022-09-30T07:42:40.042Z,15.53
2022-09-30T07:45:07.195Z,14.55
2022-09-30T07:47:33.634Z,14.57
2022-09-30T07:50:00.418Z,15.45
2022-09-30T07:52:26.931Z,16.50
2022-09-30T07:54:53.426Z,15.35
2022-09-30T07:57:21.514Z,15.05
2022-09-30T07:59:48.104Z,16.50
2022-09-30T08:02:17.653Z,16.55
2022-09-30T08:04:45.838Z,16.65
2022-09-30T08:07:14.211Z,14.73
2022-09-30T08:09:40.740Z,13.77
2022-09-30T08:12:07.687Z,15.18
2022-09-30T08:14:34.204Z,14.52
2022-09-30T08:17:01.105Z,15.88
2022-09-30T08:19:29.400Z,14.68
2022-09-30T08:21:56.762Z,15.65
2022-09-30T08:24:24.669Z,15.68
2022-09-30T08:26:51.734Z,15.43
2022-09-30T08:29:20.792Z,15.20
2022-09-30T08:31:52.282Z,16.20
2022-09-30T08:34:19.148Z,15.55
2022-09-30T08:36:46.454Z,15.13
2022-09-30T08:39:12.942Z,14.30
2022-09-30T08:41:39.337Z,14.82
2022-09-30T08:44:18.009Z,14.80
2022-09-30T08:46:58.766Z,15.47
2022-09-30T08:49:50.187Z,13.05
2022-09-30T08:52:55.197Z,13.07
2022-09-30T08:55:25.050Z,13.82
2022-09-30T08:57:53.633Z,14.10
2022-09-30T09:00:21.400Z,13.00
2022-09-30T09:02:54.962Z,13.35
2022-09-30T09:06:00.128Z,14.15
2022-09-30T09:08:49.378Z,13.45
2022-09-30T09:11:54.849Z,14.13
2022-09-30T09:14:39.810Z,13.15
2022-09-30T09:17:22.285Z,12.65
2022-09-30T09:20:05.006Z,12.70
2022-09-30T09:22:32.058Z,13.50
2022-09-30T09:24:59.660Z,13.18
2022-09-30T09:27:40.306Z,13.23
2022-09-30T09:30:08.672Z,11.80
2022-09-30T09:32:36.085Z,13.35
2022-09-30T09:35:14.569Z,13.10
2022-09-30T09:38:05.856Z,11.93
2022-09-30T09:40:39.363Z,12.73
2022-09-30T09:43:15.181Z,12.38
2022-09-30T09:45:54.831Z,10.85
2022-09-30T09:48:21.493Z,11.88
2022-09-30T09:51:03.844Z,12.07
2022-09-30T09:53:45.209Z,11.45
2022-09-30T09:56:23.178Z,11.48
2022-09-30T09:59:18.052Z,10.40
2022-09-30T10:01:52.108Z,11.13
2022-09-30T10:04:24.602Z,10.18
2022-09-30T10:07:01.406Z,10.88
2022-09-30T10:09:35.351Z,9.88
2022-09-30T10:12:07.930Z,9.40
2022-09-30T10:14:46.297Z,8.88
2022-09-30T10:17:29.332Z,10.10
2022-09-30T10:20:01.863Z,9.88
2022-09-30T10:22:31.164Z,9.65
2022-09-30T10:25:18.685Z,8.35
2022-09-30T10:27:50.681Z,8.30
2022-09-30T10:30:43.106Z,9.35
2022-09-30T10:33:18.497Z,7.95
2022-09-30T10:35:56.429Z,7.70
2022-09-30T10:38:25.687Z,7.25
2022-09-30T10:40:52.561Z,8.38
2022-09-30T10:43:28.206Z,7.28
2022-09-30T10:46:13.772Z,7.30
2022-09-30T10:48:41.487Z,6.55
2022-09-30T10:51:24.126Z,7.95
2022-09-30T10:53:50.757Z,7.53
2022-09-30T10:56:37.708Z,6.53
2022-09-30T10:59:07.055Z,6.97
2022-09-30T11:01:52.494Z,6.32
2022-09-30T11:04:24.444Z,6.82
2022-09-30T11:07:02.369Z,6.22
2022-09-30T11:09:37.640Z,7.25
2022-09-30T11:12:14.223Z,5.88
2022-09-30T11:14:57.833Z,6.53
2022-09-30T11:17:27.822Z,5.53
2022-09-30T11:20:09.423Z,5.60
2022-09-30T11:22:43.940Z,6.15
2022-09-30T11:25:17.296Z,5.72
2022-09-30T11:27:55.826Z,5.00
2022-09-30T11:30:36.967Z,4.20
2022-09-30T11:33:18.627Z,3.88
2022-09-30T11:36:26.838Z,4.63
2022-09-30T11:39:12.257Z,5.07
2022-09-30T11:42:03.008Z,4.15
2022-09-30T11:44:34.959Z,4.13
2022-09-30T11:47:23.225Z,3.85
2022-09-30T11:50:07.825Z,3.72
2022-09-30T11:52:52.968Z,3.38
2022-09-30T11:55:23.487Z,3.50
2022-09-30T11:58:39.285Z,3.10
2022-09-30T12:01:13.225Z,3.08
2022-09-30T12:03:47.895Z,3.33
2022-09-30T12:06:36.212Z,3.25
2022-09-30T12:09:35.035Z,2.75
2022-09-30T12:12:16.745Z,3.30
2022-09-30T12:14:51.654Z,3.08
2022-09-30T12:17:32.905Z,3.55
2022-09-30T12:20:18.547Z,3.10
2022-09-30T12:22:47.584Z,2.80
2022-09-30T12:25:42.308Z,2.40
2022-09-30T12:28:39.740Z,2.30
2022-09-30T12:31:38.276Z,2.30
2022-09-30T12:34:52.054Z,2.17
2022-09-30T12:37:48.772Z,2.08
2022-09-30T12:40:33.987Z,2.53
2022-09-30T12:43:16.111Z,1.77
2022-09-30T12:46:13.421Z,1.73
2022-09-30T12:48:53.406Z,1.40
2022-09-30T12:51:29.724Z,1.40
2022-09-30T12:54:04.380Z,1.80
2022-09-30T12:56:32.802Z,1.70
2022-09-30T12:59:00.592Z,1.35
2022-09-30T13:01:34.930Z,1.10
2022-09-30T13:04:01.395Z,1.20
2022-09-30T13:06:47.747Z,1.35
2022-09-30T13:09:16.947Z,1.20
2022-09-30T13:11:44.664Z,1.00
2022-09-30T13:14:29.501Z,1.15
2022-09-30T13:17:08.031Z,1.77
2022-09-30T13:19:46.569Z,1.33
2022-09-30T13:22:24.164Z,1.00
2022-09-30T13:25:12.090Z,1.20
2022-09-30T13:28:12.786Z,1.20
2022-09-30T13:30:40.240Z,1.02
2022-09-30T13:33:28.393Z,1.15
2022-09-30T13:35:58.682Z,1.08
2022-09-30T13:38:42.270Z,1.10
2022-09-30T13:41:24.184Z,1.10
2022-09-30T13:44:03.457Z,1.20
2022-09-30T13:46:43.535Z,1.13
2022-09-30T13:49:42.189Z,1.42
2022-09-30T13:52:35.102Z,1.00
2022-09-30T13:55:21.334Z,1.33
2022-09-30T13:58:22.477Z,1.40
2022-09-30T14:01:00.956Z,1.23
2022-09-30T14:03:49.135Z,1.15
2022-09-30T14:06:38.266Z,1.30
2022-09-30T14:09:19.336Z,1.30
2022-09-30T14:12:16.601Z,1.25
2022-09-30T14:15:00.308Z,1.27
2022-09-30T14:17:53.488Z,1.27
2022-09-30T14:20:37.078Z,1.08
2022-09-30T14:23:03.988Z,1.13
2022-09-30T14:25:38.153Z,1.48
2022-09-30T14:28:11.038Z,1.50
2022-09-30T14:30:45.258Z,1.15
2022-09-30T14:33:25.522Z,1.30
2022-09-30T14:38:58.332Z,1.10
2022-09-30T14:41:26.525Z,1.20
2022-09-30T14:44:02.776Z,1.27
2022-09-30T14:46:32.873Z,1.40
2022-09-30T14:49:05.973Z,1.15
2022-09-30T14:51:43.181Z,1.77
2022-09-30T14:54:19.197Z,1.65
2022-09-30T14:56:48.188Z,1.55
2022-09-30T14:59:27.016Z,1.23
2022-09-30T15:02:22.990Z,1.20
2022-09-30T15:04:55.229Z,1.13
2022-09-30T15:07:24.557Z,1.58
2022-09-30T15:09:52.523Z,1.20
2022-09-30T15:12:23.587Z,0.90
2022-09-30T15:14:58.673Z,0.80
2022-09-30T15:17:30.578Z,1.02
2022-09-30T15:19:58.634Z,0.95
2022-09-30T15:22:27.324Z,1.67
2022-09-30T15:24:54.850Z,2.13
2022-09-30T15:27:32.945Z,1.30
2022-09-30T15:30:02.400Z,1.77
2022-09-30T15:32:32.813Z,1.73
2022-09-30T15:35:25.690Z,2.90
2022-09-30T15:37:52.585Z,2.03
2022-09-30T15:40:40.299Z,1.45
2022-09-30T15:43:11.761Z,1.05
2022-09-30T15:45:44.181Z,1.00
2022-09-30T15:48:25.941Z,1.10
2022-09-30T15:50:59.290Z,1.00
2022-09-30T15:53:46.542Z,1.23
2022-09-30T15:56:37.677Z,0.90
2022-09-30T15:59:07.609Z,1.00
2022-09-30T16:01:46.558Z,1.17
2022-09-30T16:04:24.573Z,1.05
2022-09-30T16:06:54.034Z,1.40
2022-09-30T16:09:20.483Z,1.10
2022-09-30T16:11:59.723Z,1.15
2022-09-30T16:14:30.085Z,1.50
2022-09-30T16:16:59.964Z,1.50
2022-09-30T16:19:28.515Z,1.50
2022-09-30T16:21:56.168Z,1.40
2022-09-30T16:24:27.170Z,1.42
2022-09-30T16:26:57.997Z,1.10
2022-09-30T16:29:26.269Z,1.30
2022-09-30T16:31:55.580Z,1.10
2022-09-30T16:34:25.150Z,1.10
2022-09-30T16:36:53.653Z,1.15
2022-09-30T16:39:20.433Z,0.98
2022-09-30T16:41:47.245Z,1.30
2022-09-30T16:44:13.788Z,1.33
2022-09-30T16:46:40.212Z,1.60
2022-09-30T16:49:14.762Z,1.73
2022-09-30T16:51:42.010Z,2.20
2022-09-30T16:54:09.074Z,1.83
2022-09-30T16:56:35.688Z,1.73
2022-09-30T16:59:02.516Z,1.88
2022-09-30T17:01:29.057Z,1.35
2022-09-30T17:03:57.237Z,1.45
2022-09-30T17:06:29.097Z,1.17
2022-09-30T17:08:56.782Z,1.00
2022-09-30T17:11:27.915Z,1.83
2022-09-30T17:13:54.396Z,1.30
2022-09-30T17:16:22.591Z,1.70
2022-09-30T17:18:49.723Z,1.83
2022-09-30T17:21:20.297Z,1.40
2022-09-30T17:23:46.936Z,1.55
2022-09-30T17:26:13.913Z,1.60
2022-09-30T17:28:40.775Z,1.90
2022-09-30T17:31:11.484Z,1.90
2022-09-30T17:33:39.734Z,2.35
2022-09-30T17:36:09.569Z,2.20
2022-09-30T17:38:36.426Z,2.28
2022-09-30T17:41:21.934Z,2.00
2022-09-30T17:43:48.579Z,1.65
2022-09-30T17:46:18.689Z,1.70
2022-09-30T17:48:46.558Z,1.95
2022-09-30T17:51:14.689Z,2.20
2022-09-30T17:53:41.164Z,2.30
2022-09-30T17:56:16.844Z,2.10
2022-09-30T17:58:47.288Z,2.20
2022-09-30T18:01:15.090Z,2.25
2022-09-30T18:03:41.619Z,2.40
2022-09-30T18:06:08.365Z,2.15
2022-09-30T18:08:35.717Z,1.73
2022-09-30T18:11:02.657Z,1.85
2022-09-30T18:13:29.889Z,2.00
2022-09-30T18:16:01.698Z,2.00
2022-09-30T18:18:28.997Z,1.92
2022-09-30T18:20:55.496Z,1.98
2022-09-30T18:23:22.005Z,1.88
2022-09-30T18:25:49.615Z,1.92
2022-09-30T18:28:17.134Z,1.52
2022-09-30T18:30:43.865Z,1.90
2022-09-30T18:33:10.869Z,2.00
2022-09-30T18:35:39.293Z,1.88
2022-09-30T18:38:06.745Z,2.17
2022-09-30T18:40:33.953Z,1.80
2022-09-30T18:43:04.153Z,2.05
2022-09-30T18:45:33.297Z,2.20
2022-09-30T18:48:00.437Z,2.30
2022-09-30T18:50:28.658Z,2.35
2022-09-30T18:52:56.234Z,2.33
2022-09-30T18:55:22.680Z,2.72
2022-09-30T18:57:50.318Z,2.72
2022-09-30T19:00:17.984Z,2.50
2022-09-30T19:02:44.641Z,2.42
2022-09-30T19:05:12.965Z,2.33
2022-09-30T19:07:39.516Z,2.45
2022-09-30T19:10:07.682Z,2.92
2022-09-30T19:12:35.842Z,3.08
2022-09-30T19:15:08.089Z,2.42
2022-09-30T19:17:36.859Z,2.80
2022-09-30T19:20:06.761Z,2.53
2022-09-30T19:22:37.059Z,2.70
2022-09-30T19:25:05.222Z,2.53
2022-09-30T19:27:33.102Z,2.50
2022-09-30T19:29:59.835Z,3.03
2022-09-30T19:32:28.761Z,3.50
2022-09-30T19:35:05.250Z,2.75
2022-09-30T19:37:33.098Z,2.58
2022-09-30T19:40:04.309Z,2.80
2022-09-30T19:42:32.940Z,2.80
2022-09-30T19:44:59.379Z,2.70
2022-09-30T19:47:27.930Z,2.58
2022-09-30T19:49:59.421Z,2.83
2022-09-30T19:52:26.861Z,3.00
2022-09-30T19:54:57.387Z,2.80
2022-09-30T19:57:24.475Z,3.40
2022-09-30T19:59:51.271Z,3.65
2022-09-30T20:02:19.763Z,2.58
2022-09-30T20:04:46.374Z,3.20
2022-09-30T20:07:14.801Z,3.10
2022-09-30T20:09:42.476Z,2.80
2022-09-30T20:12:10.101Z,2.33
2022-09-30T20:14:55.572Z,2.47
2022-09-30T20:17:22.528Z,2.70
2022-09-30T20:20:09.223Z,2.53
2022-09-30T20:22:35.702Z,2.53
2022-09-30T20:25:02.493Z,2.50
2022-09-30T20:27:31.006Z,2.35
2022-09-30T20:29:57.468Z,2.55
2022-09-30T20:32:24.006Z,2.55
2022-09-30T20:34:51.465Z,2.63
2022-09-30T20:37:17.896Z,2.42
2022-09-30T20:39:44.944Z,2.22
2022-09-30T20:42:11.425Z,2.58
2022-09-30T20:44:37.979Z,2.72
2022-09-30T20:47:04.574Z,2.40
2022-09-30T20:49:31.013Z,1.88
2022-09-30T20:51:57.445Z,2.70
2022-09-30T20:54:24.829Z,2.40
2022-09-30T20:57:06.714Z,2.53
2022-09-30T20:59:33.970Z,2.20
2022-09-30T21:02:00.497Z,2.83
2022-09-30T21:04:27.045Z,2.28
2022-09-30T21:06:53.467Z,2.30
2022-09-30T21:09:19.905Z,2.60
2022-09-30T21:11:46.351Z,2.75
2022-09-30T21:14:15.722Z,2.50
2022-09-30T21:16:42.295Z,2.47
2022-09-30T21:19:10.222Z,2.35
2022-09-30T21:21:36.669Z,2.20
2022-09-30T21:24:03.169Z,2.50
2022-09-30T21:26:29.919Z,2.55
2022-09-30T21:28:56.374Z,2.63
2022-09-30T21:31:26.508Z,2.72
2022-09-30T21:33:58.643Z,2.75
2022-09-30T21:36:26.810Z,2.60
2022-09-30T21:38:54.671Z,2.90
2022-09-30T21:41:21.255Z,3.65
2022-09-30T21:43:47.818Z,3.13
2022-09-30T21:46:15.556Z,2.88
2022-09-30T21:48:42.546Z,3.03
2022-09-30T21:51:10.153Z,3.03
2022-09-30T21:53:38.688Z,3.22
2022-09-30T21:56:06.403Z,3.53
2022-09-30T21:58:33.471Z,3.40
2022-09-30T22:01:03.974Z,3.42
2022-09-30T22:03:35.938Z,3.47
2022-09-30T22:06:05.983Z,3.30
2022-09-30T22:08:36.073Z,3.30
2022-09-30T22:11:06.683Z,3.15
2022-09-30T22:13:33.260Z,3.47
2022-09-30T22:16:05.543Z,3.22
2022-09-30T22:21:07.753Z,3.40
2022-09-30T22:23:34.201Z,3.72
2022-09-30T22:26:11.581Z,3.25
2022-09-30T22:28:38.990Z,4.00
2022-09-30T22:31:20.292Z,3.40
2022-09-30T22:34:10.963Z,3.38
2022-09-30T22:36:55.994Z,3.67
2022-09-30T22:39:23.439Z,3.83
2022-09-30T22:41:54.585Z,3.88
2022-09-30T22:44:29.411Z,4.13
2022-09-30T22:46:57.562Z,3.78
2022-09-30T22:49:24.530Z,3.88
2022-09-30T22:51:51.924Z,3.63
2022-09-30T22:54:18.484Z,3.30
2022-09-30T22:56:45.102Z,3.95
2022-09-30T22:59:11.609Z,3.63
2022-09-30T23:01:38.066Z,3.15
2022-09-30T23:04:05.183Z,3.25
2022-09-30T23:06:31.852Z,3.33
2022-09-30T23:08:58.289Z,3.42
2022-09-30T23:11:24.748Z,3.33
2022-09-30T23:13:58.170Z,3.28
2022-09-30T23:16:25.663Z,3.85
2022-09-30T23:18:52.548Z,3.67
2022-09-30T23:21:19.677Z,3.05
2022-09-30T23:23:48.226Z,3.53
2022-09-30T23:26:20.399Z,3.05
2022-09-30T23:28:47.129Z,3.10
2022-09-30T23:31:16.236Z,3.30
2022-09-30T23:33:54.208Z,3.40
2022-09-30T23:36:26.340Z,3.25
2022-09-30T23:38:53.655Z,3.50
2022-09-30T23:41:20.404Z,3.45
2022-09-30T23:43:48.353Z,3.03
2022-09-30T23:46:17.305Z,3.45
2022-09-30T23:48:47.169Z,3.28
2022-09-30T23:51:14.289Z,3.22
2022-09-30T23:53:42.291Z,3.10
2022-09-30T23:56:15.278Z,3.72
2022-09-30T23:58:43.420Z,3.17
